sensor_id;sensor_type;location;lat;lon;timestamp;P1;durP1;ratioP1;P2;durP2;ratioP2
3307;SDS011;1666;48.898;9.182;2023-08-12T00:01:55;8.68;;;6.80;;
3307;SDS011;1666;48.898;9.182;2023-08-12T00:04:25;8.85;;;7.05;;
3307;SDS011;1666;48.898;9.182;2023-08-12T00:06:55;8.85;;;6.28;;
3307;SDS011;1666;48.898;9.182;2023-08-12T00:09:25;7.28;;;5.82;;
3307;SDS011;1666;48.898;9.182;2023-08-12T00:11:55;9.90;;;7.03;;
3307;SDS011;1666;48.898;9.182;2023-08-12T00:14:28;8.93;;;6.18;;
3307;SDS011;1666;48.898;9.182;2023-08-12T00:16:58;8.70;;;6.30;;
3307;SDS011;1666;48.898;9.182;2023-08-12T00:19:29;8.50;;;5.90;;
3307;SDS011;1666;48.898;9.182;2023-08-12T00:21:59;8.50;;;6.05;;
3307;SDS011;1666;48.898;9.182;2023-08-12T00:24:31;8.50;;;6.47;;
3307;SDS011;1666;48.898;9.182;2023-08-12T00:27:01;7.20;;;6.22;;
3307;SDS011;1666;48.898;9.182;2023-08-12T00:29:33;7.88;;;6.10;;
3307;SDS011;1666;48.898;9.182;2023-08-12T00:32:04;11.50;;;6.07;;
3307;SDS011;1666;48.898;9.182;2023-08-12T00:34:34;10.60;;;6.43;;
3307;SDS011;1666;48.898;9.182;2023-08-12T00:37:04;9.02;;;6.40;;
3307;SDS011;1666;48.898;9.182;2023-08-12T00:39:35;9.77;;;6.78;;
3307;SDS011;1666;48.898;9.182;2023-08-12T00:42:05;7.43;;;6.45;;
3307;SDS011;1666;48.898;9.182;2023-08-12T00:44:37;8.45;;;6.50;;
3307;SDS011;1666;48.898;9.182;2023-08-12T00:47:07;8.45;;;6.10;;
3307;SDS011;1666;48.898;9.182;2023-08-12T00:49:38;6.93;;;5.85;;
3307;SDS011;1666;48.898;9.182;2023-08-12T00:52:11;10.95;;;6.45;;
3307;SDS011;1666;48.898;9.182;2023-08-12T00:54:41;8.18;;;5.90;;
3307;SDS011;1666;48.898;9.182;2023-08-12T00:57:11;9.63;;;6.22;;
3307;SDS011;1666;48.898;9.182;2023-08-12T00:59:45;6.82;;;5.80;;
3307;SDS011;1666;48.898;9.182;2023-08-12T01:02:15;8.15;;;6.20;;
3307;SDS011;1666;48.898;9.182;2023-08-12T01:04:45;8.73;;;6.63;;
3307;SDS011;1666;48.898;9.182;2023-08-12T01:07:15;13.57;;;6.20;;
3307;SDS011;1666;48.898;9.182;2023-08-12T01:09:45;8.13;;;6.40;;
3307;SDS011;1666;48.898;9.182;2023-08-12T01:12:16;8.77;;;6.22;;
3307;SDS011;1666;48.898;9.182;2023-08-12T01:14:56;11.43;;;8.18;;
3307;SDS011;1666;48.898;9.182;2023-08-12T01:17:33;11.45;;;8.43;;
3307;SDS011;1666;48.898;9.182;2023-08-12T01:20:08;10.45;;;7.57;;
3307;SDS011;1666;48.898;9.182;2023-08-12T01:22:40;11.10;;;7.45;;
3307;SDS011;1666;48.898;9.182;2023-08-12T01:25:13;8.45;;;6.60;;
3307;SDS011;1666;48.898;9.182;2023-08-12T01:27:43;9.38;;;6.93;;
3307;SDS011;1666;48.898;9.182;2023-08-12T01:30:13;10.65;;;7.45;;
3307;SDS011;1666;48.898;9.182;2023-08-12T01:32:45;10.52;;;7.25;;
3307;SDS011;1666;48.898;9.182;2023-08-12T01:35:21;8.00;;;7.10;;
3307;SDS011;1666;48.898;9.182;2023-08-12T01:37:57;9.68;;;7.47;;
3307;SDS011;1666;48.898;9.182;2023-08-12T01:40:30;9.32;;;7.30;;
3307;SDS011;1666;48.898;9.182;2023-08-12T01:43:02;11.88;;;7.95;;
3307;SDS011;1666;48.898;9.182;2023-08-12T01:45:33;11.85;;;8.23;;
3307;SDS011;1666;48.898;9.182;2023-08-12T01:48:04;8.63;;;7.53;;
3307;SDS011;1666;48.898;9.182;2023-08-12T01:50:35;10.98;;;8.07;;
3307;SDS011;1666;48.898;9.182;2023-08-12T01:53:05;11.48;;;8.15;;
3307;SDS011;1666;48.898;9.182;2023-08-12T01:55:38;7.82;;;7.03;;
3307;SDS011;1666;48.898;9.182;2023-08-12T01:58:08;9.60;;;7.45;;
3307;SDS011;1666;48.898;9.182;2023-08-12T02:00:38;9.75;;;8.07;;
3307;SDS011;1666;48.898;9.182;2023-08-12T02:03:08;11.20;;;7.97;;
3307;SDS011;1666;48.898;9.182;2023-08-12T02:05:38;10.50;;;7.32;;
3307;SDS011;1666;48.898;9.182;2023-08-12T02:08:08;10.48;;;7.00;;
3307;SDS011;1666;48.898;9.182;2023-08-12T02:10:41;10.50;;;7.22;;
3307;SDS011;1666;48.898;9.182;2023-08-12T02:13:11;9.52;;;7.22;;
3307;SDS011;1666;48.898;9.182;2023-08-12T02:15:41;12.13;;;7.78;;
3307;SDS011;1666;48.898;9.182;2023-08-12T02:18:11;10.63;;;7.43;;
3307;SDS011;1666;48.898;9.182;2023-08-12T02:20:41;11.23;;;7.85;;
3307;SDS011;1666;48.898;9.182;2023-08-12T02:23:11;9.57;;;7.18;;
3307;SDS011;1666;48.898;9.182;2023-08-12T02:25:43;9.55;;;6.85;;
3307;SDS011;1666;48.898;9.182;2023-08-12T02:28:13;10.13;;;7.10;;
3307;SDS011;1666;48.898;9.182;2023-08-12T02:30:43;9.40;;;6.55;;
3307;SDS011;1666;48.898;9.182;2023-08-12T02:33:13;13.77;;;6.82;;
3307;SDS011;1666;48.898;9.182;2023-08-12T02:35:43;7.93;;;6.63;;
3307;SDS011;1666;48.898;9.182;2023-08-12T02:38:13;10.52;;;7.07;;
3307;SDS011;1666;48.898;9.182;2023-08-12T02:40:46;9.60;;;6.93;;
3307;SDS011;1666;48.898;9.182;2023-08-12T02:43:17;12.07;;;6.78;;
3307;SDS011;1666;48.898;9.182;2023-08-12T02:45:47;10.93;;;6.10;;
3307;SDS011;1666;48.898;9.182;2023-08-12T02:48:17;10.80;;;7.10;;
3307;SDS011;1666;48.898;9.182;2023-08-12T02:50:47;9.93;;;6.00;;
3307;SDS011;1666;48.898;9.182;2023-08-12T02:53:17;8.32;;;6.63;;
3307;SDS011;1666;48.898;9.182;2023-08-12T02:55:50;9.98;;;6.38;;
3307;SDS011;1666;48.898;9.182;2023-08-12T02:58:20;7.22;;;6.13;;
3307;SDS011;1666;48.898;9.182;2023-08-12T03:00:50;9.60;;;6.90;;
3307;SDS011;1666;48.898;9.182;2023-08-12T03:03:20;7.90;;;6.60;;
3307;SDS011;1666;48.898;9.182;2023-08-12T03:05:50;11.52;;;6.82;;
3307;SDS011;1666;48.898;9.182;2023-08-12T03:08:20;9.18;;;6.78;;
3307;SDS011;1666;48.898;9.182;2023-08-12T03:11:00;9.48;;;7.10;;
3307;SDS011;1666;48.898;9.182;2023-08-12T03:13:30;8.80;;;6.43;;
3307;SDS011;1666;48.898;9.182;2023-08-12T03:16:00;7.60;;;6.03;;
3307;SDS011;1666;48.898;9.182;2023-08-12T03:18:30;10.90;;;6.55;;
3307;SDS011;1666;48.898;9.182;2023-08-12T03:21:04;12.18;;;7.22;;
3307;SDS011;1666;48.898;9.182;2023-08-12T03:23:35;10.23;;;6.40;;
3307;SDS011;1666;48.898;9.182;2023-08-12T03:26:09;8.13;;;6.55;;
3307;SDS011;1666;48.898;9.182;2023-08-12T03:28:38;9.20;;;6.53;;
3307;SDS011;1666;48.898;9.182;2023-08-12T03:31:08;16.48;;;6.07;;
3307;SDS011;1666;48.898;9.182;2023-08-12T03:33:38;10.20;;;6.10;;
3307;SDS011;1666;48.898;9.182;2023-08-12T03:36:09;8.85;;;5.97;;
3307;SDS011;1666;48.898;9.182;2023-08-12T03:38:38;10.55;;;6.22;;
3307;SDS011;1666;48.898;9.182;2023-08-12T03:41:11;11.65;;;7.15;;
3307;SDS011;1666;48.898;9.182;2023-08-12T03:43:41;10.02;;;6.70;;
3307;SDS011;1666;48.898;9.182;2023-08-12T03:46:11;9.90;;;6.75;;
3307;SDS011;1666;48.898;9.182;2023-08-12T03:48:41;13.18;;;6.88;;
3307;SDS011;1666;48.898;9.182;2023-08-12T03:51:11;8.07;;;6.70;;
3307;SDS011;1666;48.898;9.182;2023-08-12T03:53:41;6.97;;;5.90;;
3307;SDS011;1666;48.898;9.182;2023-08-12T03:56:13;7.28;;;6.30;;
3307;SDS011;1666;48.898;9.182;2023-08-12T03:58:44;7.05;;;6.00;;
3307;SDS011;1666;48.898;9.182;2023-08-12T04:01:15;8.77;;;6.38;;
3307;SDS011;1666;48.898;9.182;2023-08-12T04:03:45;11.02;;;7.72;;
3307;SDS011;1666;48.898;9.182;2023-08-12T04:06:15;8.90;;;6.55;;
3307;SDS011;1666;48.898;9.182;2023-08-12T04:08:45;9.55;;;6.50;;
3307;SDS011;1666;48.898;9.182;2023-08-12T04:11:18;9.27;;;6.43;;
3307;SDS011;1666;48.898;9.182;2023-08-12T04:13:48;9.02;;;6.32;;
3307;SDS011;1666;48.898;9.182;2023-08-12T04:16:18;9.55;;;6.32;;
3307;SDS011;1666;48.898;9.182;2023-08-12T04:18:48;7.93;;;6.40;;
3307;SDS011;1666;48.898;9.182;2023-08-12T04:21:18;8.93;;;5.88;;
3307;SDS011;1666;48.898;9.182;2023-08-12T04:23:48;10.35;;;6.10;;
3307;SDS011;1666;48.898;9.182;2023-08-12T04:26:20;8.07;;;6.32;;
3307;SDS011;1666;48.898;9.182;2023-08-12T04:28:51;9.75;;;5.97;;
3307;SDS011;1666;48.898;9.182;2023-08-12T04:31:20;8.70;;;5.68;;
3307;SDS011;1666;48.898;9.182;2023-08-12T04:33:50;8.48;;;5.90;;
3307;SDS011;1666;48.898;9.182;2023-08-12T04:36:21;8.68;;;5.90;;
3307;SDS011;1666;48.898;9.182;2023-08-12T04:38:51;7.90;;;5.78;;
3307;SDS011;1666;48.898;9.182;2023-08-12T04:41:23;9.13;;;5.97;;
3307;SDS011;1666;48.898;9.182;2023-08-12T04:43:53;6.70;;;6.05;;
3307;SDS011;1666;48.898;9.182;2023-08-12T04:46:23;8.88;;;6.40;;
3307;SDS011;1666;48.898;9.182;2023-08-12T04:48:53;8.65;;;5.85;;
3307;SDS011;1666;48.898;9.182;2023-08-12T04:51:23;6.60;;;5.38;;
3307;SDS011;1666;48.898;9.182;2023-08-12T04:53:53;7.10;;;5.80;;
3307;SDS011;1666;48.898;9.182;2023-08-12T04:56:26;9.98;;;5.45;;
3307;SDS011;1666;48.898;9.182;2023-08-12T04:58:56;6.38;;;5.57;;
3307;SDS011;1666;48.898;9.182;2023-08-12T05:01:26;8.15;;;5.78;;
3307;SDS011;1666;48.898;9.182;2023-08-12T05:03:57;10.45;;;5.80;;
3307;SDS011;1666;48.898;9.182;2023-08-12T05:06:27;7.10;;;5.05;;
3307;SDS011;1666;48.898;9.182;2023-08-12T05:08:57;7.75;;;5.85;;
3307;SDS011;1666;48.898;9.182;2023-08-12T05:11:29;7.55;;;5.55;;
3307;SDS011;1666;48.898;9.182;2023-08-12T05:13:59;7.50;;;5.80;;
3307;SDS011;1666;48.898;9.182;2023-08-12T05:16:29;7.45;;;5.75;;
3307;SDS011;1666;48.898;9.182;2023-08-12T05:18:59;7.30;;;5.90;;
3307;SDS011;1666;48.898;9.182;2023-08-12T05:21:29;8.38;;;6.05;;
3307;SDS011;1666;48.898;9.182;2023-08-12T05:23:59;9.35;;;6.57;;
3307;SDS011;1666;48.898;9.182;2023-08-12T05:26:32;8.23;;;6.55;;
3307;SDS011;1666;48.898;9.182;2023-08-12T05:29:02;6.85;;;6.15;;
3307;SDS011;1666;48.898;9.182;2023-08-12T05:31:33;8.95;;;6.40;;
3307;SDS011;1666;48.898;9.182;2023-08-12T05:34:03;8.57;;;6.50;;
3307;SDS011;1666;48.898;9.182;2023-08-12T05:36:33;6.95;;;6.22;;
3307;SDS011;1666;48.898;9.182;2023-08-12T05:39:04;8.85;;;6.75;;
3307;SDS011;1666;48.898;9.182;2023-08-12T05:41:37;8.25;;;6.22;;
3307;SDS011;1666;48.898;9.182;2023-08-12T05:44:07;7.85;;;6.53;;
3307;SDS011;1666;48.898;9.182;2023-08-12T05:46:37;11.82;;;6.22;;
3307;SDS011;1666;48.898;9.182;2023-08-12T05:49:07;8.80;;;5.90;;
3307;SDS011;1666;48.898;9.182;2023-08-12T05:51:37;10.55;;;6.32;;
3307;SDS011;1666;48.898;9.182;2023-08-12T05:54:08;9.45;;;6.00;;
3307;SDS011;1666;48.898;9.182;2023-08-12T05:56:40;7.00;;;5.80;;
3307;SDS011;1666;48.898;9.182;2023-08-12T05:59:10;7.43;;;6.30;;
3307;SDS011;1666;48.898;9.182;2023-08-12T06:01:40;7.95;;;5.85;;
3307;SDS011;1666;48.898;9.182;2023-08-12T06:04:10;8.60;;;6.45;;
3307;SDS011;1666;48.898;9.182;2023-08-12T06:06:40;11.10;;;6.45;;
3307;SDS011;1666;48.898;9.182;2023-08-12T06:09:11;8.23;;;5.93;;
3307;SDS011;1666;48.898;9.182;2023-08-12T06:11:43;6.38;;;5.70;;
3307;SDS011;1666;48.898;9.182;2023-08-12T06:14:13;7.30;;;5.68;;
3307;SDS011;1666;48.898;9.182;2023-08-12T06:16:43;9.70;;;7.05;;
3307;SDS011;1666;48.898;9.182;2023-08-12T06:19:13;9.90;;;6.55;;
3307;SDS011;1666;48.898;9.182;2023-08-12T06:21:43;9.65;;;6.22;;
3307;SDS011;1666;48.898;9.182;2023-08-12T06:24:13;8.80;;;5.88;;
3307;SDS011;1666;48.898;9.182;2023-08-12T06:26:46;8.50;;;6.38;;
3307;SDS011;1666;48.898;9.182;2023-08-12T06:29:16;6.40;;;5.75;;
3307;SDS011;1666;48.898;9.182;2023-08-12T06:31:46;8.13;;;5.72;;
3307;SDS011;1666;48.898;9.182;2023-08-12T06:34:16;8.10;;;5.90;;
3307;SDS011;1666;48.898;9.182;2023-08-12T06:36:46;9.30;;;6.43;;
3307;SDS011;1666;48.898;9.182;2023-08-12T06:39:16;8.85;;;7.13;;
3307;SDS011;1666;48.898;9.182;2023-08-12T06:41:49;6.22;;;5.63;;
3307;SDS011;1666;48.898;9.182;2023-08-12T06:44:19;9.55;;;6.22;;
3307;SDS011;1666;48.898;9.182;2023-08-12T06:46:49;8.30;;;6.25;;
3307;SDS011;1666;48.898;9.182;2023-08-12T06:49:19;7.65;;;6.22;;
3307;SDS011;1666;48.898;9.182;2023-08-12T06:51:49;10.18;;;6.90;;
3307;SDS011;1666;48.898;9.182;2023-08-12T06:54:19;8.93;;;6.13;;
3307;SDS011;1666;48.898;9.182;2023-08-12T06:56:52;10.25;;;6.35;;
3307;SDS011;1666;48.898;9.182;2023-08-12T06:59:22;7.25;;;5.95;;
3307;SDS011;1666;48.898;9.182;2023-08-12T07:01:52;6.97;;;6.28;;
3307;SDS011;1666;48.898;9.182;2023-08-12T07:04:22;9.82;;;6.30;;
3307;SDS011;1666;48.898;9.182;2023-08-12T07:06:52;6.53;;;5.80;;
3307;SDS011;1666;48.898;9.182;2023-08-12T07:09:22;7.65;;;6.10;;
3307;SDS011;1666;48.898;9.182;2023-08-12T07:11:55;7.32;;;5.90;;
3307;SDS011;1666;48.898;9.182;2023-08-12T07:14:25;8.43;;;5.70;;
3307;SDS011;1666;48.898;9.182;2023-08-12T07:16:55;7.53;;;5.65;;
3307;SDS011;1666;48.898;9.182;2023-08-12T07:19:25;10.70;;;6.25;;
3307;SDS011;1666;48.898;9.182;2023-08-12T07:21:55;7.20;;;6.07;;
3307;SDS011;1666;48.898;9.182;2023-08-12T07:24:25;5.75;;;5.10;;
3307;SDS011;1666;48.898;9.182;2023-08-12T07:26:57;6.72;;;5.45;;
3307;SDS011;1666;48.898;9.182;2023-08-12T07:29:27;6.38;;;5.68;;
3307;SDS011;1666;48.898;9.182;2023-08-12T07:31:57;6.88;;;5.50;;
3307;SDS011;1666;48.898;9.182;2023-08-12T07:34:27;8.07;;;5.43;;
3307;SDS011;1666;48.898;9.182;2023-08-12T07:37:00;7.97;;;5.43;;
3307;SDS011;1666;48.898;9.182;2023-08-12T07:39:30;7.75;;;5.93;;
3307;SDS011;1666;48.898;9.182;2023-08-12T07:42:03;6.72;;;5.53;;
3307;SDS011;1666;48.898;9.182;2023-08-12T07:44:33;11.30;;;5.20;;
3307;SDS011;1666;48.898;9.182;2023-08-12T07:47:03;5.18;;;4.68;;
3307;SDS011;1666;48.898;9.182;2023-08-12T07:49:33;6.43;;;4.55;;
3307;SDS011;1666;48.898;9.182;2023-08-12T07:52:03;8.02;;;4.60;;
3307;SDS011;1666;48.898;9.182;2023-08-12T07:54:34;6.45;;;4.20;;
3307;SDS011;1666;48.898;9.182;2023-08-12T07:57:07;5.63;;;4.22;;
3307;SDS011;1666;48.898;9.182;2023-08-12T07:59:37;6.25;;;4.20;;
3307;SDS011;1666;48.898;9.182;2023-08-12T08:02:06;7.13;;;4.40;;
3307;SDS011;1666;48.898;9.182;2023-08-12T08:04:37;6.47;;;4.40;;
3307;SDS011;1666;48.898;9.182;2023-08-12T08:07:07;5.68;;;4.18;;
3307;SDS011;1666;48.898;9.182;2023-08-12T08:09:38;5.28;;;4.25;;
3307;SDS011;1666;48.898;9.182;2023-08-12T08:12:10;5.72;;;4.03;;
3307;SDS011;1666;48.898;9.182;2023-08-12T08:14:41;8.30;;;4.30;;
3307;SDS011;1666;48.898;9.182;2023-08-12T08:17:11;6.75;;;3.97;;
3307;SDS011;1666;48.898;9.182;2023-08-12T08:19:41;5.60;;;4.07;;
3307;SDS011;1666;48.898;9.182;2023-08-12T08:22:11;6.03;;;4.40;;
3307;SDS011;1666;48.898;9.182;2023-08-12T08:24:41;5.25;;;4.25;;
3307;SDS011;1666;48.898;9.182;2023-08-12T08:27:13;5.93;;;4.32;;
3307;SDS011;1666;48.898;9.182;2023-08-12T08:29:43;5.50;;;3.85;;
3307;SDS011;1666;48.898;9.182;2023-08-12T08:32:13;4.38;;;3.50;;
3307;SDS011;1666;48.898;9.182;2023-08-12T08:34:43;7.07;;;4.85;;
3307;SDS011;1666;48.898;9.182;2023-08-12T08:37:13;7.95;;;4.28;;
3307;SDS011;1666;48.898;9.182;2023-08-12T08:39:43;6.47;;;4.15;;
3307;SDS011;1666;48.898;9.182;2023-08-12T08:42:15;5.40;;;4.53;;
3307;SDS011;1666;48.898;9.182;2023-08-12T08:44:49;6.75;;;4.53;;
3307;SDS011;1666;48.898;9.182;2023-08-12T08:47:26;6.63;;;4.32;;
3307;SDS011;1666;48.898;9.182;2023-08-12T08:49:57;5.10;;;4.57;;
3307;SDS011;1666;48.898;9.182;2023-08-12T08:52:28;5.97;;;4.22;;
3307;SDS011;1666;48.898;9.182;2023-08-12T08:54:59;6.32;;;4.47;;
3307;SDS011;1666;48.898;9.182;2023-08-12T08:57:36;7.03;;;4.70;;
3307;SDS011;1666;48.898;9.182;2023-08-12T09:00:14;5.80;;;4.68;;
3307;SDS011;1666;48.898;9.182;2023-08-12T09:02:45;6.82;;;4.70;;
3307;SDS011;1666;48.898;9.182;2023-08-12T09:05:16;8.57;;;4.50;;
3307;SDS011;1666;48.898;9.182;2023-08-12T09:07:47;6.63;;;4.20;;
3307;SDS011;1666;48.898;9.182;2023-08-12T09:10:19;5.38;;;4.50;;
3307;SDS011;1666;48.898;9.182;2023-08-12T09:12:57;4.63;;;4.18;;
3307;SDS011;1666;48.898;9.182;2023-08-12T09:15:28;5.22;;;4.53;;
3307;SDS011;1666;48.898;9.182;2023-08-12T09:17:58;7.18;;;4.18;;
3307;SDS011;1666;48.898;9.182;2023-08-12T09:20:28;7.22;;;4.43;;
3307;SDS011;1666;48.898;9.182;2023-08-12T09:22:59;4.30;;;3.88;;
3307;SDS011;1666;48.898;9.182;2023-08-12T09:25:29;7.03;;;4.50;;
3307;SDS011;1666;48.898;9.182;2023-08-12T09:28:04;5.25;;;3.83;;
3307;SDS011;1666;48.898;9.182;2023-08-12T09:30:34;6.40;;;4.15;;
3307;SDS011;1666;48.898;9.182;2023-08-12T09:33:05;6.10;;;4.63;;
3307;SDS011;1666;48.898;9.182;2023-08-12T09:35:38;4.70;;;4.10;;
3307;SDS011;1666;48.898;9.182;2023-08-12T09:38:11;6.43;;;4.43;;
3307;SDS011;1666;48.898;9.182;2023-08-12T09:40:42;5.18;;;4.45;;
3307;SDS011;1666;48.898;9.182;2023-08-12T09:43:18;5.53;;;4.43;;
3307;SDS011;1666;48.898;9.182;2023-08-12T09:45:55;6.43;;;4.68;;
3307;SDS011;1666;48.898;9.182;2023-08-12T09:48:26;5.30;;;4.45;;
3307;SDS011;1666;48.898;9.182;2023-08-12T09:50:56;5.82;;;4.40;;
3307;SDS011;1666;48.898;9.182;2023-08-12T09:53:26;5.07;;;4.10;;
3307;SDS011;1666;48.898;9.182;2023-08-12T09:55:56;4.97;;;4.53;;
3307;SDS011;1666;48.898;9.182;2023-08-12T09:58:37;6.53;;;4.72;;
3307;SDS011;1666;48.898;9.182;2023-08-12T10:01:10;5.00;;;4.60;;
3307;SDS011;1666;48.898;9.182;2023-08-12T10:03:40;7.05;;;4.40;;
3307;SDS011;1666;48.898;9.182;2023-08-12T10:06:13;5.45;;;4.20;;
3307;SDS011;1666;48.898;9.182;2023-08-12T10:08:45;5.78;;;4.10;;
3307;SDS011;1666;48.898;9.182;2023-08-12T10:11:15;5.78;;;4.00;;
3307;SDS011;1666;48.898;9.182;2023-08-12T10:13:48;6.63;;;3.90;;
3307;SDS011;1666;48.898;9.182;2023-08-12T10:16:18;4.68;;;3.80;;
3307;SDS011;1666;48.898;9.182;2023-08-12T10:18:49;4.93;;;4.43;;
3307;SDS011;1666;48.898;9.182;2023-08-12T10:21:20;7.78;;;3.80;;
3307;SDS011;1666;48.898;9.182;2023-08-12T10:23:51;4.35;;;3.95;;
3307;SDS011;1666;48.898;9.182;2023-08-12T10:26:23;6.68;;;4.10;;
3307;SDS011;1666;48.898;9.182;2023-08-12T10:28:57;5.75;;;3.90;;
3307;SDS011;1666;48.898;9.182;2023-08-12T10:31:28;4.43;;;3.90;;
3307;SDS011;1666;48.898;9.182;2023-08-12T10:33:58;4.32;;;3.78;;
3307;SDS011;1666;48.898;9.182;2023-08-12T10:36:31;4.65;;;4.00;;
3307;SDS011;1666;48.898;9.182;2023-08-12T10:39:07;4.72;;;3.83;;
3307;SDS011;1666;48.898;9.182;2023-08-12T10:41:38;4.65;;;4.03;;
3307;SDS011;1666;48.898;9.182;2023-08-12T10:44:11;5.78;;;4.05;;
3307;SDS011;1666;48.898;9.182;2023-08-12T10:46:41;7.10;;;3.90;;
3307;SDS011;1666;48.898;9.182;2023-08-12T10:49:20;5.68;;;3.88;;
3307;SDS011;1666;48.898;9.182;2023-08-12T10:51:51;4.70;;;4.00;;
3307;SDS011;1666;48.898;9.182;2023-08-12T10:54:23;4.50;;;3.80;;
3307;SDS011;1666;48.898;9.182;2023-08-12T10:59:50;5.07;;;3.85;;
3307;SDS011;1666;48.898;9.182;2023-08-12T11:02:25;7.65;;;3.60;;
3307;SDS011;1666;48.898;9.182;2023-08-12T11:04:57;6.00;;;3.80;;
3307;SDS011;1666;48.898;9.182;2023-08-12T11:07:34;5.80;;;3.92;;
3307;SDS011;1666;48.898;9.182;2023-08-12T11:10:11;6.32;;;4.05;;
3307;SDS011;1666;48.898;9.182;2023-08-12T11:12:46;5.25;;;3.80;;
3307;SDS011;1666;48.898;9.182;2023-08-12T11:15:28;4.30;;;3.35;;
3307;SDS011;1666;48.898;9.182;2023-08-12T11:18:02;5.00;;;3.20;;
3307;SDS011;1666;48.898;9.182;2023-08-12T11:20:33;6.63;;;2.95;;
3307;SDS011;1666;48.898;9.182;2023-08-12T11:23:04;4.13;;;3.03;;
3307;SDS011;1666;48.898;9.182;2023-08-12T11:25:37;3.75;;;2.80;;
3307;SDS011;1666;48.898;9.182;2023-08-12T11:28:08;4.32;;;3.40;;
3307;SDS011;1666;48.898;9.182;2023-08-12T11:30:42;3.42;;;2.78;;
3307;SDS011;1666;48.898;9.182;2023-08-12T11:33:12;4.68;;;2.85;;
3307;SDS011;1666;48.898;9.182;2023-08-12T11:35:47;3.10;;;2.80;;
3307;SDS011;1666;48.898;9.182;2023-08-12T11:38:17;5.95;;;2.90;;
3307;SDS011;1666;48.898;9.182;2023-08-12T11:40:47;6.13;;;2.88;;
3307;SDS011;1666;48.898;9.182;2023-08-12T11:43:20;4.72;;;2.80;;
3307;SDS011;1666;48.898;9.182;2023-08-12T11:45:53;4.75;;;2.80;;
3307;SDS011;1666;48.898;9.182;2023-08-12T11:48:25;4.18;;;2.90;;
3307;SDS011;1666;48.898;9.182;2023-08-12T11:50:56;4.85;;;2.97;;
3307;SDS011;1666;48.898;9.182;2023-08-12T11:53:26;5.82;;;3.72;;
3307;SDS011;1666;48.898;9.182;2023-08-12T11:55:56;9.25;;;2.75;;
3307;SDS011;1666;48.898;9.182;2023-08-12T11:58:26;7.15;;;2.22;;
3307;SDS011;1666;48.898;9.182;2023-08-12T12:01:21;9.27;;;2.42;;
3307;SDS011;1666;48.898;9.182;2023-08-12T12:03:51;8.07;;;2.33;;
3307;SDS011;1666;48.898;9.182;2023-08-12T12:06:27;4.00;;;2.05;;
3307;SDS011;1666;48.898;9.182;2023-08-12T12:09:03;2.58;;;2.10;;
3307;SDS011;1666;48.898;9.182;2023-08-12T12:11:36;3.53;;;2.72;;
3307;SDS011;1666;48.898;9.182;2023-08-12T12:14:07;3.90;;;3.20;;
3307;SDS011;1666;48.898;9.182;2023-08-12T12:16:41;5.10;;;2.75;;
3307;SDS011;1666;48.898;9.182;2023-08-12T12:19:13;3.47;;;1.90;;
3307;SDS011;1666;48.898;9.182;2023-08-12T12:21:45;4.47;;;2.80;;
3307;SDS011;1666;48.898;9.182;2023-08-12T12:24:16;6.78;;;3.05;;
3307;SDS011;1666;48.898;9.182;2023-08-12T12:26:47;4.28;;;2.67;;
3307;SDS011;1666;48.898;9.182;2023-08-12T12:29:19;10.38;;;4.72;;
3307;SDS011;1666;48.898;9.182;2023-08-12T12:31:52;7.43;;;4.30;;
3307;SDS011;1666;48.898;9.182;2023-08-12T12:34:22;8.93;;;5.45;;
3307;SDS011;1666;48.898;9.182;2023-08-12T12:36:52;25.10;;;7.22;;
3307;SDS011;1666;48.898;9.182;2023-08-12T12:39:21;12.70;;;6.75;;
3307;SDS011;1666;48.898;9.182;2023-08-12T12:41:52;12.82;;;7.00;;
3307;SDS011;1666;48.898;9.182;2023-08-12T12:44:22;10.68;;;5.72;;
3307;SDS011;1666;48.898;9.182;2023-08-12T12:46:54;12.15;;;6.20;;
3307;SDS011;1666;48.898;9.182;2023-08-12T12:49:24;10.50;;;6.90;;
3307;SDS011;1666;48.898;9.182;2023-08-12T12:51:55;8.32;;;6.20;;
3307;SDS011;1666;48.898;9.182;2023-08-12T12:54:25;8.77;;;7.13;;
3307;SDS011;1666;48.898;9.182;2023-08-12T12:56:56;9.18;;;7.03;;
3307;SDS011;1666;48.898;9.182;2023-08-12T12:59:26;8.25;;;7.40;;
3307;SDS011;1666;48.898;9.182;2023-08-12T13:01:58;9.75;;;7.20;;
3307;SDS011;1666;48.898;9.182;2023-08-12T13:04:28;15.25;;;8.38;;
3307;SDS011;1666;48.898;9.182;2023-08-12T13:06:58;8.18;;;5.82;;
3307;SDS011;1666;48.898;9.182;2023-08-12T13:09:28;7.25;;;6.03;;
3307;SDS011;1666;48.898;9.182;2023-08-12T13:11:58;8.98;;;6.00;;
3307;SDS011;1666;48.898;9.182;2023-08-12T13:14:28;8.90;;;4.90;;
3307;SDS011;1666;48.898;9.182;2023-08-12T13:17:01;6.88;;;5.05;;
3307;SDS011;1666;48.898;9.182;2023-08-12T13:19:31;5.57;;;4.65;;
3307;SDS011;1666;48.898;9.182;2023-08-12T13:22:01;5.63;;;4.40;;
3307;SDS011;1666;48.898;9.182;2023-08-12T13:24:32;7.05;;;4.63;;
3307;SDS011;1666;48.898;9.182;2023-08-12T13:27:03;9.13;;;5.20;;
3307;SDS011;1666;48.898;9.182;2023-08-12T13:29:34;6.45;;;4.40;;
3307;SDS011;1666;48.898;9.182;2023-08-12T13:32:06;6.13;;;5.18;;
3307;SDS011;1666;48.898;9.182;2023-08-12T13:34:37;6.75;;;5.25;;
3307;SDS011;1666;48.898;9.182;2023-08-12T13:37:09;5.97;;;4.88;;
3307;SDS011;1666;48.898;9.182;2023-08-12T13:39:39;8.00;;;5.70;;
3307;SDS011;1666;48.898;9.182;2023-08-12T13:42:09;5.82;;;4.82;;
3307;SDS011;1666;48.898;9.182;2023-08-12T13:44:40;5.53;;;4.00;;
3307;SDS011;1666;48.898;9.182;2023-08-12T13:47:12;5.80;;;3.90;;
3307;SDS011;1666;48.898;9.182;2023-08-12T13:49:42;7.25;;;4.60;;
3307;SDS011;1666;48.898;9.182;2023-08-12T13:52:12;5.85;;;4.20;;
3307;SDS011;1666;48.898;9.182;2023-08-12T13:54:42;5.93;;;3.55;;
3307;SDS011;1666;48.898;9.182;2023-08-12T13:57:12;4.50;;;3.35;;
3307;SDS011;1666;48.898;9.182;2023-08-12T13:59:42;4.68;;;3.90;;
3307;SDS011;1666;48.898;9.182;2023-08-12T14:02:16;8.38;;;4.30;;
3307;SDS011;1666;48.898;9.182;2023-08-12T14:04:47;4.85;;;3.22;;
3307;SDS011;1666;48.898;9.182;2023-08-12T14:07:17;7.00;;;3.47;;
3307;SDS011;1666;48.898;9.182;2023-08-12T14:09:48;3.33;;;3.03;;
3307;SDS011;1666;48.898;9.182;2023-08-12T14:12:18;3.97;;;3.10;;
3307;SDS011;1666;48.898;9.182;2023-08-12T14:14:48;4.22;;;3.00;;
3307;SDS011;1666;48.898;9.182;2023-08-12T14:17:20;4.32;;;3.30;;
3307;SDS011;1666;48.898;9.182;2023-08-12T14:19:52;4.60;;;3.58;;
3307;SDS011;1666;48.898;9.182;2023-08-12T14:22:22;4.57;;;3.38;;
3307;SDS011;1666;48.898;9.182;2023-08-12T14:24:52;3.97;;;3.45;;
3307;SDS011;1666;48.898;9.182;2023-08-12T14:27:22;7.32;;;3.40;;
3307;SDS011;1666;48.898;9.182;2023-08-12T14:29:52;3.90;;;3.38;;
3307;SDS011;1666;48.898;9.182;2023-08-12T14:32:25;8.38;;;4.05;;
3307;SDS011;1666;48.898;9.182;2023-08-12T14:34:55;5.57;;;3.17;;
3307;SDS011;1666;48.898;9.182;2023-08-12T14:37:25;4.00;;;3.60;;
3307;SDS011;1666;48.898;9.182;2023-08-12T14:39:56;6.35;;;3.60;;
3307;SDS011;1666;48.898;9.182;2023-08-12T14:42:26;5.15;;;3.60;;
3307;SDS011;1666;48.898;9.182;2023-08-12T14:44:56;6.45;;;4.30;;
3307;SDS011;1666;48.898;9.182;2023-08-12T14:47:29;5.28;;;3.45;;
3307;SDS011;1666;48.898;9.182;2023-08-12T14:49:59;4.93;;;3.25;;
3307;SDS011;1666;48.898;9.182;2023-08-12T14:52:31;3.45;;;3.10;;
3307;SDS011;1666;48.898;9.182;2023-08-12T14:55:01;6.40;;;3.75;;
3307;SDS011;1666;48.898;9.182;2023-08-12T14:57:31;4.43;;;3.55;;
3307;SDS011;1666;48.898;9.182;2023-08-12T15:00:01;4.25;;;3.20;;
3307;SDS011;1666;48.898;9.182;2023-08-12T15:02:36;3.85;;;3.20;;
3307;SDS011;1666;48.898;9.182;2023-08-12T15:05:06;3.53;;;3.17;;
3307;SDS011;1666;48.898;9.182;2023-08-12T15:07:37;7.85;;;3.83;;
3307;SDS011;1666;48.898;9.182;2023-08-12T15:10:07;6.45;;;3.80;;
3307;SDS011;1666;48.898;9.182;2023-08-12T15:12:38;5.35;;;3.20;;
3307;SDS011;1666;48.898;9.182;2023-08-12T15:15:08;5.15;;;3.80;;
3307;SDS011;1666;48.898;9.182;2023-08-12T15:17:41;4.10;;;3.70;;
3307;SDS011;1666;48.898;9.182;2023-08-12T15:20:11;5.97;;;3.85;;
3307;SDS011;1666;48.898;9.182;2023-08-12T15:22:41;6.53;;;3.85;;
3307;SDS011;1666;48.898;9.182;2023-08-12T15:25:11;5.00;;;3.83;;
3307;SDS011;1666;48.898;9.182;2023-08-12T15:27:41;5.75;;;3.97;;
3307;SDS011;1666;48.898;9.182;2023-08-12T15:30:11;4.97;;;4.43;;
3307;SDS011;1666;48.898;9.182;2023-08-12T15:32:44;4.47;;;4.07;;
3307;SDS011;1666;48.898;9.182;2023-08-12T15:35:14;4.22;;;3.83;;
3307;SDS011;1666;48.898;9.182;2023-08-12T15:37:44;4.82;;;4.18;;
3307;SDS011;1666;48.898;9.182;2023-08-12T15:40:14;5.65;;;4.10;;